sensor_id;sensor_type;location;lat;lon;timestamp;temperature;humidity
16655;DHT22;8441;51.344;7.022;2023-08-20T00:01:12;19.30;99.90
16655;DHT22;8441;51.344;7.022;2023-08-20T00:03:42;19.30;99.90
16655;DHT22;8441;51.344;7.022;2023-08-20T00:06:12;19.30;99.90
16655;DHT22;8441;51.344;7.022;2023-08-20T00:08:39;19.40;99.90
16655;DHT22;8441;51.344;7.022;2023-08-20T00:11:07;19.30;99.90
16655;DHT22;8441;51.344;7.022;2023-08-20T00:13:34;19.30;99.90
16655;DHT22;8441;51.344;7.022;2023-08-20T00:16:03;19.40;99.90
16655;DHT22;8441;51.344;7.022;2023-08-20T00:18:31;19.40;99.90
16655;DHT22;8441;51.344;7.022;2023-08-20T00:20:59;19.40;99.90
16655;DHT22;8441;51.344;7.022;2023-08-20T00:23:26;19.30;99.90
16655;DHT22;8441;51.344;7.022;2023-08-20T00:25:54;19.30;99.90
16655;DHT22;8441;51.344;7.022;2023-08-20T00:28:22;19.40;99.90
16655;DHT22;8441;51.344;7.022;2023-08-20T00:30:49;19.30;99.90
16655;DHT22;8441;51.344;7.022;2023-08-20T00:33:17;19.30;99.90
16655;DHT22;8441;51.344;7.022;2023-08-20T00:35:45;19.20;99.90
16655;DHT22;8441;51.344;7.022;2023-08-20T00:38:12;19.20;99.90
16655;DHT22;8441;51.344;7.022;2023-08-20T00:40:39;19.10;99.90
16655;DHT22;8441;51.344;7.022;2023-08-20T00:43:06;19.10;99.90
16655;DHT22;8441;51.344;7.022;2023-08-20T00:45:34;19.20;99.90
16655;DHT22;8441;51.344;7.022;2023-08-20T00:48:01;19.10;99.90
16655;DHT22;8441;51.344;7.022;2023-08-20T00:50:30;19.10;99.90
16655;DHT22;8441;51.344;7.022;2023-08-20T00:52:57;19.00;99.90
16655;DHT22;8441;51.344;7.022;2023-08-20T00:55:24;19.10;99.90
16655;DHT22;8441;51.344;7.022;2023-08-20T00:57:52;19.10;99.90
16655;DHT22;8441;51.344;7.022;2023-08-20T01:00:19;19.10;99.90
16655;DHT22;8441;51.344;7.022;2023-08-20T01:02:47;19.20;99.90
16655;DHT22;8441;51.344;7.022;2023-08-20T01:05:16;19.20;99.90
16655;DHT22;8441;51.344;7.022;2023-08-20T01:07:52;19.10;99.90
16655;DHT22;8441;51.344;7.022;2023-08-20T01:10:29;19.10;99.90
16655;DHT22;8441;51.344;7.022;2023-08-20T01:12:57;19.00;99.90
16655;DHT22;8441;51.344;7.022;2023-08-20T01:15:24;19.10;99.90
16655;DHT22;8441;51.344;7.022;2023-08-20T01:17:52;19.00;99.90
16655;DHT22;8441;51.344;7.022;2023-08-20T01:20:21;18.90;99.90
16655;DHT22;8441;51.344;7.022;2023-08-20T01:23:24;18.80;99.90
16655;DHT22;8441;51.344;7.022;2023-08-20T01:26:09;18.80;99.90
16655;DHT22;8441;51.344;7.022;2023-08-20T01:28:40;18.80;99.90
16655;DHT22;8441;51.344;7.022;2023-08-20T01:31:08;18.70;99.90
16655;DHT22;8441;51.344;7.022;2023-08-20T01:33:35;18.70;99.90
16655;DHT22;8441;51.344;7.022;2023-08-20T01:36:03;18.60;99.90
16655;DHT22;8441;51.344;7.022;2023-08-20T01:38:35;18.60;99.90
16655;DHT22;8441;51.344;7.022;2023-08-20T01:41:02;18.60;99.90
16655;DHT22;8441;51.344;7.022;2023-08-20T01:43:30;18.50;99.90
16655;DHT22;8441;51.344;7.022;2023-08-20T01:45:58;18.50;99.90
16655;DHT22;8441;51.344;7.022;2023-08-20T01:48:25;18.50;99.90
16655;DHT22;8441;51.344;7.022;2023-08-20T01:50:53;18.50;99.90
16655;DHT22;8441;51.344;7.022;2023-08-20T01:53:20;18.50;99.90
16655;DHT22;8441;51.344;7.022;2023-08-20T01:55:47;18.50;99.90
16655;DHT22;8441;51.344;7.022;2023-08-20T01:58:14;18.50;99.90
16655;DHT22;8441;51.344;7.022;2023-08-20T02:00:42;18.50;99.90
16655;DHT22;8441;51.344;7.022;2023-08-20T02:03:10;18.50;99.90
16655;DHT22;8441;51.344;7.022;2023-08-20T02:05:37;18.50;99.90
16655;DHT22;8441;51.344;7.022;2023-08-20T02:08:05;18.60;99.90
16655;DHT22;8441;51.344;7.022;2023-08-20T02:10:32;18.60;99.90
16655;DHT22;8441;51.344;7.022;2023-08-20T02:12:59;18.50;99.90
16655;DHT22;8441;51.344;7.022;2023-08-20T02:15:26;18.50;99.90
16655;DHT22;8441;51.344;7.022;2023-08-20T02:17:53;18.50;99.90
16655;DHT22;8441;51.344;7.022;2023-08-20T02:20:22;18.50;99.90
16655;DHT22;8441;51.344;7.022;2023-08-20T02:22:49;18.50;99.90
16655;DHT22;8441;51.344;7.022;2023-08-20T02:25:16;18.50;99.90
16655;DHT22;8441;51.344;7.022;2023-08-20T02:27:44;18.50;99.90
16655;DHT22;8441;51.344;7.022;2023-08-20T02:30:12;18.40;99.90
16655;DHT22;8441;51.344;7.022;2023-08-20T02:32:40;18.40;99.90
16655;DHT22;8441;51.344;7.022;2023-08-20T02:35:07;18.40;99.90
16655;DHT22;8441;51.344;7.022;2023-08-20T02:37:36;18.40;99.90
16655;DHT22;8441;51.344;7.022;2023-08-20T02:40:04;18.50;99.90
16655;DHT22;8441;51.344;7.022;2023-08-20T02:42:32;18.50;99.90
16655;DHT22;8441;51.344;7.022;2023-08-20T02:44:59;18.70;99.90
16655;DHT22;8441;51.344;7.022;2023-08-20T02:47:26;18.80;99.90
16655;DHT22;8441;51.344;7.022;2023-08-20T02:49:53;18.90;99.90
16655;DHT22;8441;51.344;7.022;2023-08-20T02:52:20;18.90;99.90
16655;DHT22;8441;51.344;7.022;2023-08-20T02:54:49;18.90;99.90
16655;DHT22;8441;51.344;7.022;2023-08-20T02:57:16;18.90;99.90
16655;DHT22;8441;51.344;7.022;2023-08-20T02:59:43;18.90;99.90
16655;DHT22;8441;51.344;7.022;2023-08-20T03:02:10;18.90;99.90
16655;DHT22;8441;51.344;7.022;2023-08-20T03:04:38;18.90;99.90
16655;DHT22;8441;51.344;7.022;2023-08-20T03:07:05;18.80;99.90
16655;DHT22;8441;51.344;7.022;2023-08-20T03:09:32;18.70;99.90
16655;DHT22;8441;51.344;7.022;2023-08-20T03:12:00;18.70;99.90
16655;DHT22;8441;51.344;7.022;2023-08-20T03:14:27;18.70;99.90
16655;DHT22;8441;51.344;7.022;2023-08-20T03:16:55;18.60;99.90
16655;DHT22;8441;51.344;7.022;2023-08-20T03:19:22;18.60;99.90
16655;DHT22;8441;51.344;7.022;2023-08-20T03:21:49;18.60;99.90
16655;DHT22;8441;51.344;7.022;2023-08-20T03:24:16;18.50;99.90
16655;DHT22;8441;51.344;7.022;2023-08-20T03:26:43;18.50;99.90
16655;DHT22;8441;51.344;7.022;2023-08-20T03:29:13;18.50;99.90
16655;DHT22;8441;51.344;7.022;2023-08-20T03:31:40;18.60;99.90
16655;DHT22;8441;51.344;7.022;2023-08-20T03:34:07;18.60;99.90
16655;DHT22;8441;51.344;7.022;2023-08-20T03:36:35;18.60;99.90
16655;DHT22;8441;51.344;7.022;2023-08-20T03:39:03;18.50;99.90
16655;DHT22;8441;51.344;7.022;2023-08-20T03:41:30;18.60;99.90
16655;DHT22;8441;51.344;7.022;2023-08-20T03:43:57;18.50;99.90
16655;DHT22;8441;51.344;7.022;2023-08-20T03:46:25;18.50;99.90
16655;DHT22;8441;51.344;7.022;2023-08-20T03:48:53;18.50;99.90
16655;DHT22;8441;51.344;7.022;2023-08-20T03:51:20;18.50;99.90
16655;DHT22;8441;51.344;7.022;2023-08-20T03:53:47;18.40;99.90
16655;DHT22;8441;51.344;7.022;2023-08-20T03:56:14;18.40;99.90
16655;DHT22;8441;51.344;7.022;2023-08-20T03:58:41;18.40;99.90
16655;DHT22;8441;51.344;7.022;2023-08-20T04:01:08;18.50;99.90
16655;DHT22;8441;51.344;7.022;2023-08-20T04:03:37;18.50;99.90
16655;DHT22;8441;51.344;7.022;2023-08-20T04:06:04;18.50;99.90
16655;DHT22;8441;51.344;7.022;2023-08-20T04:08:33;18.40;99.90
16655;DHT22;8441;51.344;7.022;2023-08-20T04:11:00;18.30;99.90
16655;DHT22;8441;51.344;7.022;2023-08-20T04:13:28;18.20;99.90
16655;DHT22;8441;51.344;7.022;2023-08-20T04:15:55;18.20;99.90
16655;DHT22;8441;51.344;7.022;2023-08-20T04:18:22;18.20;99.90
16655;DHT22;8441;51.344;7.022;2023-08-20T04:20:52;18.20;99.90
16655;DHT22;8441;51.344;7.022;2023-08-20T04:23:20;18.20;99.90
16655;DHT22;8441;51.344;7.022;2023-08-20T04:25:47;18.30;99.90
16655;DHT22;8441;51.344;7.022;2023-08-20T04:28:14;18.30;99.90
16655;DHT22;8441;51.344;7.022;2023-08-20T04:30:41;18.20;99.90
16655;DHT22;8441;51.344;7.022;2023-08-20T04:33:09;18.20;99.90
16655;DHT22;8441;51.344;7.022;2023-08-20T04:35:36;18.20;99.90
16655;DHT22;8441;51.344;7.022;2023-08-20T04:38:05;18.30;99.90
16655;DHT22;8441;51.344;7.022;2023-08-20T04:40:33;18.20;99.90
16655;DHT22;8441;51.344;7.022;2023-08-20T04:43:00;18.20;99.90
16655;DHT22;8441;51.344;7.022;2023-08-20T04:45:27;18.20;99.90
16655;DHT22;8441;51.344;7.022;2023-08-20T04:47:55;18.20;99.90
16655;DHT22;8441;51.344;7.022;2023-08-20T04:50:22;18.20;99.90
16655;DHT22;8441;51.344;7.022;2023-08-20T04:52:49;18.20;99.90
16655;DHT22;8441;51.344;7.022;2023-08-20T04:55:17;18.30;99.90
16655;DHT22;8441;51.344;7.022;2023-08-20T04:57:45;18.30;99.90
16655;DHT22;8441;51.344;7.022;2023-08-20T05:00:12;18.30;99.90
16655;DHT22;8441;51.344;7.022;2023-08-20T05:02:41;18.40;99.90
16655;DHT22;8441;51.344;7.022;2023-08-20T05:05:08;18.40;99.90
16655;DHT22;8441;51.344;7.022;2023-08-20T05:07:36;18.40;99.90
16655;DHT22;8441;51.344;7.022;2023-08-20T05:10:04;18.40;99.90
16655;DHT22;8441;51.344;7.022;2023-08-20T05:12:34;18.40;99.90
16655;DHT22;8441;51.344;7.022;2023-08-20T05:15:01;18.40;99.90
16655;DHT22;8441;51.344;7.022;2023-08-20T05:17:28;18.50;99.90
16655;DHT22;8441;51.344;7.022;2023-08-20T05:19:55;18.50;99.90
16655;DHT22;8441;51.344;7.022;2023-08-20T05:22:22;18.50;99.90
16655;DHT22;8441;51.344;7.022;2023-08-20T05:24:49;18.50;99.90
16655;DHT22;8441;51.344;7.022;2023-08-20T05:27:17;18.60;99.90
16655;DHT22;8441;51.344;7.022;2023-08-20T05:29:45;18.60;99.90
16655;DHT22;8441;51.344;7.022;2023-08-20T05:32:13;18.60;99.90
16655;DHT22;8441;51.344;7.022;2023-08-20T05:34:40;18.70;99.90
16655;DHT22;8441;51.344;7.022;2023-08-20T05:37:07;18.70;99.90
16655;DHT22;8441;51.344;7.022;2023-08-20T05:39:39;18.70;99.90
16655;DHT22;8441;51.344;7.022;2023-08-20T05:42:07;18.80;99.90
16655;DHT22;8441;51.344;7.022;2023-08-20T05:44:34;18.80;99.90
16655;DHT22;8441;51.344;7.022;2023-08-20T05:47:03;18.90;99.90
16655;DHT22;8441;51.344;7.022;2023-08-20T05:49:31;18.90;99.90
16655;DHT22;8441;51.344;7.022;2023-08-20T05:51:58;18.90;99.90
16655;DHT22;8441;51.344;7.022;2023-08-20T05:54:25;19.00;99.90
16655;DHT22;8441;51.344;7.022;2023-08-20T05:56:52;19.00;99.90
16655;DHT22;8441;51.344;7.022;2023-08-20T05:59:19;19.10;99.90
16655;DHT22;8441;51.344;7.022;2023-08-20T06:01:47;19.20;99.90
16655;DHT22;8441;51.344;7.022;2023-08-20T06:04:15;19.20;99.90
16655;DHT22;8441;51.344;7.022;2023-08-20T06:06:44;19.30;99.90
16655;DHT22;8441;51.344;7.022;2023-08-20T06:09:11;19.50;99.90
16655;DHT22;8441;51.344;7.022;2023-08-20T06:11:39;19.50;99.90
16655;DHT22;8441;51.344;7.022;2023-08-20T06:14:06;19.70;99.90
16655;DHT22;8441;51.344;7.022;2023-08-20T06:16:33;19.70;99.90
16655;DHT22;8441;51.344;7.022;2023-08-20T06:19:00;19.60;99.90
16655;DHT22;8441;51.344;7.022;2023-08-20T06:21:29;19.60;99.90
16655;DHT22;8441;51.344;7.022;2023-08-20T06:23:56;19.70;99.90
16655;DHT22;8441;51.344;7.022;2023-08-20T06:26:23;19.80;99.90
16655;DHT22;8441;51.344;7.022;2023-08-20T06:28:51;19.80;99.90
16655;DHT22;8441;51.344;7.022;2023-08-20T06:31:18;19.90;99.90
16655;DHT22;8441;51.344;7.022;2023-08-20T06:33:46;19.90;99.90
16655;DHT22;8441;51.344;7.022;2023-08-20T06:36:14;20.10;99.90
16655;DHT22;8441;51.344;7.022;2023-08-20T06:38:42;20.10;99.90
16655;DHT22;8441;51.344;7.022;2023-08-20T06:41:09;20.10;99.90
16655;DHT22;8441;51.344;7.022;2023-08-20T06:43:36;20.20;99.90
16655;DHT22;8441;51.344;7.022;2023-08-20T06:46:04;20.40;99.90
16655;DHT22;8441;51.344;7.022;2023-08-20T06:48:31;20.50;99.90
16655;DHT22;8441;51.344;7.022;2023-08-20T06:50:58;20.60;99.90
16655;DHT22;8441;51.344;7.022;2023-08-20T06:53:25;20.70;99.90
16655;DHT22;8441;51.344;7.022;2023-08-20T06:55:53;20.70;99.90
16655;DHT22;8441;51.344;7.022;2023-08-20T06:58:21;20.80;99.90
16655;DHT22;8441;51.344;7.022;2023-08-20T07:00:48;20.80;99.90
16655;DHT22;8441;51.344;7.022;2023-08-20T07:03:15;20.90;99.90
16655;DHT22;8441;51.344;7.022;2023-08-20T07:05:43;20.90;99.90
16655;DHT22;8441;51.344;7.022;2023-08-20T07:08:10;21.10;99.90
16655;DHT22;8441;51.344;7.022;2023-08-20T07:10:37;21.20;99.90
16655;DHT22;8441;51.344;7.022;2023-08-20T07:13:06;21.20;99.90
16655;DHT22;8441;51.344;7.022;2023-08-20T07:15:33;21.40;99.90
16655;DHT22;8441;51.344;7.022;2023-08-20T07:18:00;21.50;99.90
16655;DHT22;8441;51.344;7.022;2023-08-20T07:20:27;21.60;99.90
16655;DHT22;8441;51.344;7.022;2023-08-20T07:22:54;21.70;99.90
16655;DHT22;8441;51.344;7.022;2023-08-20T07:25:21;21.70;99.90
16655;DHT22;8441;51.344;7.022;2023-08-20T07:27:49;21.80;99.90
16655;DHT22;8441;51.344;7.022;2023-08-20T07:30:18;21.90;99.90
16655;DHT22;8441;51.344;7.022;2023-08-20T07:32:44;21.90;99.90
16655;DHT22;8441;51.344;7.022;2023-08-20T07:35:11;22.00;99.90
16655;DHT22;8441;51.344;7.022;2023-08-20T07:37:38;22.10;99.90
16655;DHT22;8441;51.344;7.022;2023-08-20T07:40:07;22.20;99.90
16655;DHT22;8441;51.344;7.022;2023-08-20T07:42:35;22.40;99.90
16655;DHT22;8441;51.344;7.022;2023-08-20T07:45:03;22.50;99.90
16655;DHT22;8441;51.344;7.022;2023-08-20T07:47:32;22.60;99.90
16655;DHT22;8441;51.344;7.022;2023-08-20T07:49:59;22.70;99.90
16655;DHT22;8441;51.344;7.022;2023-08-20T07:52:26;22.70;99.90
16655;DHT22;8441;51.344;7.022;2023-08-20T07:54:53;22.80;99.90
16655;DHT22;8441;51.344;7.022;2023-08-20T07:57:21;23.00;99.90
16655;DHT22;8441;51.344;7.022;2023-08-20T07:59:48;23.00;99.90
16655;DHT22;8441;51.344;7.022;2023-08-20T08:02:16;23.00;99.90
16655;DHT22;8441;51.344;7.022;2023-08-20T08:04:44;23.10;99.90
16655;DHT22;8441;51.344;7.022;2023-08-20T08:07:12;23.10;99.90
16655;DHT22;8441;51.344;7.022;2023-08-20T08:09:39;23.10;99.90
16655;DHT22;8441;51.344;7.022;2023-08-20T08:12:06;23.20;99.90
16655;DHT22;8441;51.344;7.022;2023-08-20T08:14:33;23.10;99.90
16655;DHT22;8441;51.344;7.022;2023-08-20T08:17:00;23.10;99.90
16655;DHT22;8441;51.344;7.022;2023-08-20T08:19:27;23.00;99.90
16655;DHT22;8441;51.344;7.022;2023-08-20T08:21:56;22.90;99.90
16655;DHT22;8441;51.344;7.022;2023-08-20T08:24:24;22.80;99.90
16655;DHT22;8441;51.344;7.022;2023-08-20T08:26:51;22.80;99.90
16655;DHT22;8441;51.344;7.022;2023-08-20T08:29:18;22.80;99.90
16655;DHT22;8441;51.344;7.022;2023-08-20T08:31:45;22.80;99.90
16655;DHT22;8441;51.344;7.022;2023-08-20T08:34:12;22.80;99.90
16655;DHT22;8441;51.344;7.022;2023-08-20T08:36:40;22.80;99.90
16655;DHT22;8441;51.344;7.022;2023-08-20T08:39:08;23.00;99.90
16655;DHT22;8441;51.344;7.022;2023-08-20T08:41:36;23.20;99.90
16655;DHT22;8441;51.344;7.022;2023-08-20T08:44:06;23.40;99.90
16655;DHT22;8441;51.344;7.022;2023-08-20T08:46:37;23.50;99.90
16655;DHT22;8441;51.344;7.022;2023-08-20T08:49:05;23.70;99.90
16655;DHT22;8441;51.344;7.022;2023-08-20T08:51:34;23.80;99.90
16655;DHT22;8441;51.344;7.022;2023-08-20T08:54:03;23.80;99.90
16655;DHT22;8441;51.344;7.022;2023-08-20T08:56:32;23.80;99.90
16655;DHT22;8441;51.344;7.022;2023-08-20T08:59:00;23.80;99.90
16655;DHT22;8441;51.344;7.022;2023-08-20T09:01:28;23.80;99.90
16655;DHT22;8441;51.344;7.022;2023-08-20T09:03:56;24.00;99.90
16655;DHT22;8441;51.344;7.022;2023-08-20T09:06:23;24.00;99.90
16655;DHT22;8441;51.344;7.022;2023-08-20T09:09:03;24.40;99.90
16655;DHT22;8441;51.344;7.022;2023-08-20T09:11:36;24.40;99.90
16655;DHT22;8441;51.344;7.022;2023-08-20T09:14:03;24.30;99.90
16655;DHT22;8441;51.344;7.022;2023-08-20T09:16:31;24.60;99.90
16655;DHT22;8441;51.344;7.022;2023-08-20T09:19:00;25.00;99.90
16655;DHT22;8441;51.344;7.022;2023-08-20T09:21:27;25.40;99.90
16655;DHT22;8441;51.344;7.022;2023-08-20T09:23:55;25.50;99.90
16655;DHT22;8441;51.344;7.022;2023-08-20T09:26:23;25.60;99.90
16655;DHT22;8441;51.344;7.022;2023-08-20T09:28:55;25.70;99.90
16655;DHT22;8441;51.344;7.022;2023-08-20T09:31:37;25.70;99.90
16655;DHT22;8441;51.344;7.022;2023-08-20T09:34:04;25.70;99.90
16655;DHT22;8441;51.344;7.022;2023-08-20T09:36:33;25.70;99.90
16655;DHT22;8441;51.344;7.022;2023-08-20T09:39:01;25.60;99.90
16655;DHT22;8441;51.344;7.022;2023-08-20T09:41:29;25.50;99.90
16655;DHT22;8441;51.344;7.022;2023-08-20T09:43:59;25.40;99.90
16655;DHT22;8441;51.344;7.022;2023-08-20T09:46:27;25.60;99.90
16655;DHT22;8441;51.344;7.022;2023-08-20T09:48:58;25.80;99.90
16655;DHT22;8441;51.344;7.022;2023-08-20T09:51:26;25.90;99.90
16655;DHT22;8441;51.344;7.022;2023-08-20T09:54:00;26.20;99.90
16655;DHT22;8441;51.344;7.022;2023-08-20T09:56:30;26.40;99.90
16655;DHT22;8441;51.344;7.022;2023-08-20T09:58:59;26.40;99.90
16655;DHT22;8441;51.344;7.022;2023-08-20T10:01:28;26.20;99.90
16655;DHT22;8441;51.344;7.022;2023-08-20T10:03:55;25.90;99.90
16655;DHT22;8441;51.344;7.022;2023-08-20T10:06:23;25.80;99.90
16655;DHT22;8441;51.344;7.022;2023-08-20T10:08:51;25.70;99.90
16655;DHT22;8441;51.344;7.022;2023-08-20T10:11:20;25.60;99.90
16655;DHT22;8441;51.344;7.022;2023-08-20T10:13:47;25.70;99.90
16655;DHT22;8441;51.344;7.022;2023-08-20T10:16:17;25.50;99.90
16655;DHT22;8441;51.344;7.022;2023-08-20T10:18:47;25.50;99.90
16655;DHT22;8441;51.344;7.022;2023-08-20T10:21:15;25.50;99.90
16655;DHT22;8441;51.344;7.022;2023-08-20T10:23:42;25.50;99.90
16655;DHT22;8441;51.344;7.022;2023-08-20T10:26:15;25.70;99.90
16655;DHT22;8441;51.344;7.022;2023-08-20T10:28:44;25.80;99.90
16655;DHT22;8441;51.344;7.022;2023-08-20T10:31:12;25.80;99.90
16655;DHT22;8441;51.344;7.022;2023-08-20T10:33:49;25.90;99.90
16655;DHT22;8441;51.344;7.022;2023-08-20T10:36:18;25.80;99.90
16655;DHT22;8441;51.344;7.022;2023-08-20T10:38:49;25.70;99.90
16655;DHT22;8441;51.344;7.022;2023-08-20T10:41:24;25.70;99.90
16655;DHT22;8441;51.344;7.022;2023-08-20T10:43:52;25.90;99.90
16655;DHT22;8441;51.344;7.022;2023-08-20T10:46:20;26.00;99.90
16655;DHT22;8441;51.344;7.022;2023-08-20T10:48:51;26.20;99.90
16655;DHT22;8441;51.344;7.022;2023-08-20T10:51:19;26.50;99.90
16655;DHT22;8441;51.344;7.022;2023-08-20T10:54:04;27.10;99.90
16655;DHT22;8441;51.344;7.022;2023-08-20T10:56:42;27.40;99.90
16655;DHT22;8441;51.344;7.022;2023-08-20T10:59:14;28.10;99.90
16655;DHT22;8441;51.344;7.022;2023-08-20T11:01:44;28.20;99.90
16655;DHT22;8441;51.344;7.022;2023-08-20T11:04:13;28.00;99.90
16655;DHT22;8441;51.344;7.022;2023-08-20T11:06:41;27.40;99.90
16655;DHT22;8441;51.344;7.022;2023-08-20T11:09:08;27.20;99.90
16655;DHT22;8441;51.344;7.022;2023-08-20T11:11:37;27.00;99.90
16655;DHT22;8441;51.344;7.022;2023-08-20T11:14:06;26.80;99.90
16655;DHT22;8441;51.344;7.022;2023-08-20T11:16:34;26.50;99.90
16655;DHT22;8441;51.344;7.022;2023-08-20T11:19:03;26.40;99.90
16655;DHT22;8441;51.344;7.022;2023-08-20T11:21:36;26.40;99.90
16655;DHT22;8441;51.344;7.022;2023-08-20T11:24:04;26.50;99.90
16655;DHT22;8441;51.344;7.022;2023-08-20T11:26:32;26.80;99.90
16655;DHT22;8441;51.344;7.022;2023-08-20T11:29:00;26.80;99.90
16655;DHT22;8441;51.344;7.022;2023-08-20T11:31:28;26.80;99.90
16655;DHT22;8441;51.344;7.022;2023-08-20T11:33:57;26.70;99.90
16655;DHT22;8441;51.344;7.022;2023-08-20T11:36:24;26.70;99.90
16655;DHT22;8441;51.344;7.022;2023-08-20T11:38:53;26.70;99.90
16655;DHT22;8441;51.344;7.022;2023-08-20T11:41:21;26.70;99.90
16655;DHT22;8441;51.344;7.022;2023-08-20T11:43:48;26.70;99.90
16655;DHT22;8441;51.344;7.022;2023-08-20T11:46:17;26.70;99.90
16655;DHT22;8441;51.344;7.022;2023-08-20T11:49:02;27.00;99.90
16655;DHT22;8441;51.344;7.022;2023-08-20T11:51:30;27.30;99.90
16655;DHT22;8441;51.344;7.022;2023-08-20T11:53:58;27.40;99.90
16655;DHT22;8441;51.344;7.022;2023-08-20T11:56:27;27.80;99.90
16655;DHT22;8441;51.344;7.022;2023-08-20T11:58:59;28.00;99.90
16655;DHT22;8441;51.344;7.022;2023-08-20T12:01:29;28.00;99.90
16655;DHT22;8441;51.344;7.022;2023-08-20T12:04:03;27.70;99.90
16655;DHT22;8441;51.344;7.022;2023-08-20T12:06:30;27.60;99.90
16655;DHT22;8441;51.344;7.022;2023-08-20T12:09:00;27.60;99.90
16655;DHT22;8441;51.344;7.022;2023-08-20T12:11:27;27.70;99.90
16655;DHT22;8441;51.344;7.022;2023-08-20T12:13:55;27.40;99.90
16655;DHT22;8441;51.344;7.022;2023-08-20T12:16:23;27.10;99.90
16655;DHT22;8441;51.344;7.022;2023-08-20T12:18:51;26.80;99.90
16655;DHT22;8441;51.344;7.022;2023-08-20T12:21:19;26.80;99.90
16655;DHT22;8441;51.344;7.022;2023-08-20T12:23:46;26.50;99.90
16655;DHT22;8441;51.344;7.022;2023-08-20T12:26:15;26.70;99.90
16655;DHT22;8441;51.344;7.022;2023-08-20T12:28:42;26.80;99.90
16655;DHT22;8441;51.344;7.022;2023-08-20T12:31:09;27.00;99.90
16655;DHT22;8441;51.344;7.022;2023-08-20T12:33:36;27.20;99.90
16655;DHT22;8441;51.344;7.022;2023-08-20T12:36:04;27.30;99.90
16655;DHT22;8441;51.344;7.022;2023-08-20T12:38:31;27.30;99.90
16655;DHT22;8441;51.344;7.022;2023-08-20T12:41:00;27.10;99.90
16655;DHT22;8441;51.344;7.022;2023-08-20T12:43:31;27.10;99.90
16655;DHT22;8441;51.344;7.022;2023-08-20T12:45:58;27.20;99.90
16655;DHT22;8441;51.344;7.022;2023-08-20T12:48:25;27.20;99.90
16655;DHT22;8441;51.344;7.022;2023-08-20T12:50:52;27.30;99.90
16655;DHT22;8441;51.344;7.022;2023-08-20T12:53:19;27.30;99.90
16655;DHT22;8441;51.344;7.022;2023-08-20T12:55:47;27.20;99.90
16655;DHT22;8441;51.344;7.022;2023-08-20T12:58:14;27.30;99.90
16655;DHT22;8441;51.344;7.022;2023-08-20T13:00:43;27.40;99.90
16655;DHT22;8441;51.344;7.022;2023-08-20T13:03:11;27.50;99.90
16655;DHT22;8441;51.344;7.022;2023-08-20T13:05:39;27.20;99.90
16655;DHT22;8441;51.344;7.022;2023-08-20T13:08:07;27.30;99.90
16655;DHT22;8441;51.344;7.022;2023-08-20T13:10:37;27.20;99.90
16655;DHT22;8441;51.344;7.022;2023-08-20T13:13:05;27.10;99.90
16655;DHT22;8441;51.344;7.022;2023-08-20T13:15:34;26.90;99.90
16655;DHT22;8441;51.344;7.022;2023-08-20T13:18:04;26.70;99.90
16655;DHT22;8441;51.344;7.022;2023-08-20T13:20:33;26.80;99.90
16655;DHT22;8441;51.344;7.022;2023-08-20T13:23:00;26.80;99.90
16655;DHT22;8441;51.344;7.022;2023-08-20T13:25:28;26.70;99.90
16655;DHT22;8441;51.344;7.022;2023-08-20T13:27:55;26.80;99.90
16655;DHT22;8441;51.344;7.022;2023-08-20T13:30:22;26.80;99.90
16655;DHT22;8441;51.344;7.022;2023-08-20T13:32:49;26.90;99.90
16655;DHT22;8441;51.344;7.022;2023-08-20T13:35:18;27.20;99.90
16655;DHT22;8441;51.344;7.022;2023-08-20T13:37:45;27.50;99.90
16655;DHT22;8441;51.344;7.022;2023-08-20T13:40:12;27.50;99.90
16655;DHT22;8441;51.344;7.022;2023-08-20T13:42:40;27.60;99.90
16655;DHT22;8441;51.344;7.022;2023-08-20T13:45:08;27.70;99.90
16655;DHT22;8441;51.344;7.022;2023-08-20T13:47:35;27.70;99.90
16655;DHT22;8441;51.344;7.022;2023-08-20T13:50:03;27.60;99.90
16655;DHT22;8441;51.344;7.022;2023-08-20T13:52:31;27.60;99.90
16655;DHT22;8441;51.344;7.022;2023-08-20T13:54:58;27.60;99.90
16655;DHT22;8441;51.344;7.022;2023-08-20T13:57:26;27.40;99.90
16655;DHT22;8441;51.344;7.022;2023-08-20T13:59:53;27.10;99.90
16655;DHT22;8441;51.344;7.022;2023-08-20T14:02:20;27.10;99.90
16655;DHT22;8441;51.344;7.022;2023-08-20T14:04:47;27.30;99.90
16655;DHT22;8441;51.344;7.022;2023-08-20T14:07:14;27.30;99.90
16655;DHT22;8441;51.344;7.022;2023-08-20T14:09:43;27.40;99.90
16655;DHT22;8441;51.344;7.022;2023-08-20T14:12:10;27.50;99.90
16655;DHT22;8441;51.344;7.022;2023-08-20T14:14:37;27.50;99.90
16655;DHT22;8441;51.344;7.022;2023-08-20T14:17:05;27.50;99.90
16655;DHT22;8441;51.344;7.022;2023-08-20T14:19:32;27.40;99.90
16655;DHT22;8441;51.344;7.022;2023-08-20T14:21:59;27.20;99.90
16655;DHT22;8441;51.344;7.022;2023-08-20T14:24:26;27.20;99.90
16655;DHT22;8441;51.344;7.022;2023-08-20T14:26:55;27.20;99.90
16655;DHT22;8441;51.344;7.022;2023-08-20T14:29:22;27.10;99.90
16655;DHT22;8441;51.344;7.022;2023-08-20T14:31:49;27.10;99.90
16655;DHT22;8441;51.344;7.022;2023-08-20T14:34:16;27.10;99.90
16655;DHT22;8441;51.344;7.022;2023-08-20T14:36:43;27.20;99.90
16655;DHT22;8441;51.344;7.022;2023-08-20T14:39:10;27.30;99.90
16655;DHT22;8441;51.344;7.022;2023-08-20T14:41:38;27.30;99.90
16655;DHT22;8441;51.344;7.022;2023-08-20T14:44:07;27.20;99.90
16655;DHT22;8441;51.344;7.022;2023-08-20T14:46:34;27.20;99.90
16655;DHT22;8441;51.344;7.022;2023-08-20T14:49:01;27.10;99.90
16655;DHT22;8441;51.344;7.022;2023-08-20T14:51:28;27.10;99.90
16655;DHT22;8441;51.344;7.022;2023-08-20T14:53:55;27.20;99.90
16655;DHT22;8441;51.344;7.022;2023-08-20T14:56:22;27.20;99.90
16655;DHT22;8441;51.344;7.022;2023-08-20T14:58:50;27.30;99.90
16655;DHT22;8441;51.344;7.022;2023-08-20T15:01:19;27.30;99.90
16655;DHT22;8441;51.344;7.022;2023-08-20T15:03:46;27.30;99.90
16655;DHT22;8441;51.344;7.022;2023-08-20T15:06:13;27.40;99.90
16655;DHT22;8441;51.344;7.022;2023-08-20T15:08:41;27.50;99.90
16655;DHT22;8441;51.344;7.022;2023-08-20T15:11:08;27.50;99.90
16655;DHT22;8441;51.344;7.022;2023-08-20T15:13:35;27.30;99.90
16655;DHT22;8441;51.344;7.022;2023-08-20T15:16:03;27.20;99.90
16655;DHT22;8441;51.344;7.022;2023-08-20T15:18:32;27.10;99.90
16655;DHT22;8441;51.344;7.022;2023-08-20T15:20:59;27.10;99.90
16655;DHT22;8441;51.344;7.022;2023-08-20T15:23:28;27.00;99.90
16655;DHT22;8441;51.344;7.022;2023-08-20T15:25:56;26.90;99.90
16655;DHT22;8441;51.344;7.022;2023-08-20T15:28:24;26.90;99.90
16655;DHT22;8441;51.344;7.022;2023-08-20T15:30:52;26.90;99.90
16655;DHT22;8441;51.344;7.022;2023-08-20T15:33:20;26.80;99.90
16655;DHT22;8441;51.344;7.022;2023-08-20T15:35:49;26.80;99.90
16655;DHT22;8441;51.344;7.022;2023-08-20T15:38:16;26.70;99.90
16655;DHT22;8441;51.344;7.022;2023-08-20T15:40:44;27.00;99.90
16655;DHT22;8441;51.344;7.022;2023-08-20T15:43:11;27.00;99.90
16655;DHT22;8441;51.344;7.022;2023-08-20T15:45:38;27.00;99.90
16655;DHT22;8441;51.344;7.022;2023-08-20T15:48:06;27.10;99.90
16655;DHT22;8441;51.344;7.022;2023-08-20T15:50:33;27.30;99.90